Terminal Aerodrome Forecast
Issued by NWS

Current Version | Previous Version | Graphics & Text | Print | Product List | Glossary On
Versions: 1 2 3 4 5 6 7 8 9 10 11 12 13 14 15 16 17 18 19 20 21 22
000
FTUS41 KPBZ 130100 AAA
TAFHLG
TAF AMD
KHLG 130157Z 1302/1324 05005KT P6SM SCT026
     FM130800 VRB03KT P6SM -SHRA OVC025
     FM131500 30008KT P6SM BKN025
     FM131900 30008KT P6SM BKN045=

USA.gov is the U.S. government's official web portal to all federal, state and local government web resources and services.